Frisia Aller — A8SB5 — position and weather

sailwx.info

Track history (hours):
 
Tides and Currents Weather Stations Pressure Air Temp Water Temp Dewpoint Dewpoint Depression Visibility Wind Speed Wind Dir Waves Ship Positions

Frisia Aller

Last reported at 2017-Oct-15 20:54 UTC. Time now 2017-Oct-19 16:54 UTC.
Position S 26°44' E 153°12'.

Length 148 m; draft 7.7 m.

Type: Ship. MMSI: 636091729.

Date/timePositionNaut miles runAvg speedWind from/ knotsBaromVisibWave heightAir tempDewpointWater temp
2017-Oct-15 20:54S 26°44' E 153°12'513.1
2017-Oct-15 20:30S 26°49' E 153°10'612.4
2017-Oct-15 20:01S 26°55' E 153°12'714.0
2017-Oct-15 19:30S 27°01' E 153°15'613.0
2017-Oct-15 19:00S 27°06' E 153°19'713.1
2017-Oct-15 18:30S 27°13' E 153°20'713.4
2017-Oct-15 18:00S 27°17' E 153°15'612.4
2017-Oct-15 17:30S 27°22' E 153°10'0 0.2
2017-Oct-15 17:00S 27°22' E 153°10'0 0.0
2017-Oct-15 16:30S 27°22' E 153°10'0 0.0
2017-Oct-15 16:00S 27°22' E 153°10'0 0.0
2017-Oct-15 15:30S 27°22' E 153°10'0 0.0
2017-Oct-15 15:00S 27°22' E 153°10'0 0.0
2017-Oct-15 14:00S 27°22' E 153°10'0 0.0
2017-Oct-15 13:30S 27°22' E 153°10'0 0.0
2017-Oct-15 13:00S 27°22' E 153°10'0 0.0
2017-Oct-15 12:30S 27°22' E 153°10'0 0.0
2017-Oct-15 12:00S 27°22' E 153°10'0 0.0
2017-Oct-15 11:30S 27°22' E 153°10'0 0.0
2017-Oct-15 11:00S 27°22' E 153°10'0 0.0
2017-Oct-15 10:30S 27°22' E 153°10'0 0.0
2017-Oct-15 09:59S 27°22' E 153°10'0 0.0
2017-Oct-15 09:29S 27°22' E 153°10'0 0.0
2017-Oct-15 09:00S 27°22' E 153°10'2 4.0
2017-Oct-15 08:30S 27°20' E 153°11'713.8
2017-Oct-15 08:00S 27°16' E 153°17'713.8
2017-Oct-15 07:30S 27°10' E 153°21'714.2
2017-Oct-15 07:00S 27°03' E 153°18'713.3
2017-Oct-15 06:31S 26°58' E 153°13'713.8
2017-Oct-15 06:01S 26°52' E 153°09'4 8.0
2017-Oct-15 05:30S 26°48' E 153°11'29 9.2
2017-Oct-15 02:21S 27°05' E 153°38'513.8
2017-Oct-15 01:57S 27°10' E 153°39'614.0
2017-Oct-15 01:30S 27°16' E 153°39'714.2
2017-Oct-15 01:01S 27°23' E 153°40'714.1
2017-Oct-15 00:30S 27°30' E 153°40'714.0
2017-Oct-15 00:00S 27°37' E 153°40'713.7
2017-Oct-14 23:30S 27°44' E 153°40'713.9
2017-Oct-14 23:00S 27°51' E 153°41'713.8
2017-Oct-14 22:30S 27°58' E 153°43'713.5
2017-Oct-14 22:01S 28°04' E 153°44'713.2
2017-Oct-14 21:30S 28°11' E 153°46'612.6
2017-Oct-14 21:00S 28°17' E 153°47'712.5
2017-Oct-14 20:28S 28°24' E 153°47'24813.8
2017-Oct-14 02:27S 32°25' E 152°41'613.8
2017-Oct-14 02:00S 32°31' E 152°38'714.1
2017-Oct-14 01:30S 32°36' E 152°32'713.6
2017-Oct-14 01:00S 32°41' E 152°27'714.0
2017-Oct-14 00:30S 32°46' E 152°21'714.0
2017-Oct-14 00:01S 32°52' E 152°16'714.1
2017-Oct-13 23:31S 32°57' E 152°11'714.9
2017-Oct-13 23:01S 33°03' E 152°05'815.1
2017-Oct-13 22:31S 33°09' E 151°59'4614.7
2017-Oct-13 19:22S 33°49' E 151°32'  
2017-Oct-09 13:51S 38°14' E 144°55'515.2
2017-Oct-09 13:30S 38°09' E 144°55'715.0
2017-Oct-09 13:00S 38°01' E 144°55'714.2
2017-Oct-09 12:30S 37°54' E 144°55'4 8.9
2017-Oct-09 12:00S 37°50' E 144°54'1 0.0
2017-Oct-08 16:06S 37°49' E 144°54'0 0.0
2017-Oct-08 15:36S 37°49' E 144°54'0 0.0
2017-Oct-08 02:16S 37°49' E 144°54'0 0.4
2017-Oct-08 02:00S 37°49' E 144°54'3 5.7
2017-Oct-08 01:29S 37°52' E 144°55'1 2.5
2017-Oct-08 01:01S 37°53' E 144°55'0 0.7
2017-Oct-08 00:30S 37°54' E 144°55'0 0.4
2017-Oct-07 23:54S 37°53' E 144°55'3 5.2
2017-Oct-07 23:16S 37°50' E 144°54'1 0.3
2017-Oct-07 19:11S 37°49' E 144°55'0 0.0
2017-Oct-07 18:33S 37°49' E 144°55'0 0.0
2017-Oct-07 18:15S 37°49' E 144°55'0 0.0
2017-Oct-07 17:57S 37°49' E 144°55'0 0.0
2017-Oct-07 16:32S 37°49' E 144°55'0 0.0
2017-Oct-07 13:27S 37°49' E 144°55'0 0.0
2017-Oct-06 14:08S 37°49' E 144°55'0 0.2
2017-Oct-06 13:53S 37°49' E 144°55'1 3.2
2017-Oct-06 13:27S 37°50' E 144°54'5 9.0
2017-Oct-06 12:57S 37°54' E 144°56'715.0
2017-Oct-06 12:30S 38°01' E 144°56'  
Track history (hours):
 
Tides and Currents Weather Stations Pressure Air Temp Water Temp Dewpoint Dewpoint Depression Visibility Wind Speed Wind Dir Waves Ship Positions

Frisia Aller

Last reported at 2017-Oct-15 20:54 UTC. Time now 2017-Oct-19 16:54 UTC.
Position S 26°44' E 153°12'.

Length 148 m; draft 7.7 m.

Type: Ship. MMSI: 636091729.

Date/timePositionNaut miles runAvg speedWind from/ knotsBaromVisibWave heightAir tempDewpointWater temp
2017-Oct-15 20:54S 26°44' E 153°12'513.1
2017-Oct-15 20:30S 26°49' E 153°10'612.4
2017-Oct-15 20:01S 26°55' E 153°12'714.0
2017-Oct-15 19:30S 27°01' E 153°15'613.0
2017-Oct-15 19:00S 27°06' E 153°19'713.1
2017-Oct-15 18:30S 27°13' E 153°20'713.4
2017-Oct-15 18:00S 27°17' E 153°15'612.4
2017-Oct-15 17:30S 27°22' E 153°10'0 0.2
2017-Oct-15 17:00S 27°22' E 153°10'0 0.0
2017-Oct-15 16:30S 27°22' E 153°10'0 0.0
2017-Oct-15 16:00S 27°22' E 153°10'0 0.0
2017-Oct-15 15:30S 27°22' E 153°10'0 0.0
2017-Oct-15 15:00S 27°22' E 153°10'0 0.0
2017-Oct-15 14:00S 27°22' E 153°10'0 0.0
2017-Oct-15 13:30S 27°22' E 153°10'0 0.0
2017-Oct-15 13:00S 27°22' E 153°10'0 0.0
2017-Oct-15 12:30S 27°22' E 153°10'0 0.0
2017-Oct-15 12:00S 27°22' E 153°10'0 0.0
2017-Oct-15 11:30S 27°22' E 153°10'0 0.0
2017-Oct-15 11:00S 27°22' E 153°10'0 0.0
2017-Oct-15 10:30S 27°22' E 153°10'0 0.0
2017-Oct-15 09:59S 27°22' E 153°10'0 0.0
2017-Oct-15 09:29S 27°22' E 153°10'0 0.0
2017-Oct-15 09:00S 27°22' E 153°10'2 4.0
2017-Oct-15 08:30S 27°20' E 153°11'713.8
2017-Oct-15 08:00S 27°16' E 153°17'713.8
2017-Oct-15 07:30S 27°10' E 153°21'714.2
2017-Oct-15 07:00S 27°03' E 153°18'713.3
2017-Oct-15 06:31S 26°58' E 153°13'713.8
2017-Oct-15 06:01S 26°52' E 153°09'4 8.0
2017-Oct-15 05:30S 26°48' E 153°11'29 9.2
2017-Oct-15 02:21S 27°05' E 153°38'513.8
2017-Oct-15 01:57S 27°10' E 153°39'614.0
2017-Oct-15 01:30S 27°16' E 153°39'714.2
2017-Oct-15 01:01S 27°23' E 153°40'714.1
2017-Oct-15 00:30S 27°30' E 153°40'714.0
2017-Oct-15 00:00S 27°37' E 153°40'713.7
2017-Oct-14 23:30S 27°44' E 153°40'713.9
2017-Oct-14 23:00S 27°51' E 153°41'713.8
2017-Oct-14 22:30S 27°58' E 153°43'713.5
2017-Oct-14 22:01S 28°04' E 153°44'713.2
2017-Oct-14 21:30S 28°11' E 153°46'612.6
2017-Oct-14 21:00S 28°17' E 153°47'712.5
2017-Oct-14 20:28S 28°24' E 153°47'24813.8
2017-Oct-14 02:27S 32°25' E 152°41'613.8
2017-Oct-14 02:00S 32°31' E 152°38'714.1
2017-Oct-14 01:30S 32°36' E 152°32'713.6
2017-Oct-14 01:00S 32°41' E 152°27'714.0
2017-Oct-14 00:30S 32°46' E 152°21'714.0
2017-Oct-14 00:01S 32°52' E 152°16'714.1
2017-Oct-13 23:31S 32°57' E 152°11'714.9
2017-Oct-13 23:01S 33°03' E 152°05'815.1
2017-Oct-13 22:31S 33°09' E 151°59'4614.7
2017-Oct-13 19:22S 33°49' E 151°32'  
2017-Oct-09 13:51S 38°14' E 144°55'515.2
2017-Oct-09 13:30S 38°09' E 144°55'715.0
2017-Oct-09 13:00S 38°01' E 144°55'714.2
2017-Oct-09 12:30S 37°54' E 144°55'4 8.9
2017-Oct-09 12:00S 37°50' E 144°54'1 0.0
2017-Oct-08 16:06S 37°49' E 144°54'0 0.0
2017-Oct-08 15:36S 37°49' E 144°54'0 0.0
2017-Oct-08 02:16S 37°49' E 144°54'0 0.4
2017-Oct-08 02:00S 37°49' E 144°54'3 5.7
2017-Oct-08 01:29S 37°52' E 144°55'1 2.5
2017-Oct-08 01:01S 37°53' E 144°55'0 0.7
2017-Oct-08 00:30S 37°54' E 144°55'0 0.4
2017-Oct-07 23:54S 37°53' E 144°55'3 5.2
2017-Oct-07 23:16S 37°50' E 144°54'1 0.3
2017-Oct-07 19:11S 37°49' E 144°55'0 0.0
2017-Oct-07 18:33S 37°49' E 144°55'0 0.0
2017-Oct-07 18:15S 37°49' E 144°55'0 0.0
2017-Oct-07 17:57S 37°49' E 144°55'0 0.0
2017-Oct-07 16:32S 37°49' E 144°55'0 0.0
2017-Oct-07 13:27S 37°49' E 144°55'0 0.0
2017-Oct-06 14:08S 37°49' E 144°55'0 0.2
2017-Oct-06 13:53S 37°49' E 144°55'1 3.2
2017-Oct-06 13:27S 37°50' E 144°54'5 9.0
2017-Oct-06 12:57S 37°54' E 144°56'715.0
2017-Oct-06 12:30S 38°01' E 144°56'  

Dump ship's entire track history